Norton, KS

5:07 AM CDT on August 30, 2016 (GMT -0500)
by sebelius lake | | Change Station

Elev 2418 ft 39.83 °N, 99.97 °W | Updated 48 seconds ago

Mostly Cloudy
Mostly Cloudy
65.5 °F
Feels Like 65.5 °F
N
0.0
Wind Variable Wind from WSW
Gusts 0.0 mph

Today
High -- | Low -- °F
--% Chance of Precip.
Yesterday
High -- | Low -- °F
Precip. -- in
Pressure 30.15 in
Visibility 5.0 miles
Clouds Mostly Cloudy 7000 ft
Mostly Cloudy 8500 ft
Dew Point 64 °F
Humidity 94%
Rainfall 0.00 in
Snow Depth Not available.
7:06 AM 8:13 PM
Waning Crescent, 4% visible
METAR KHLC 300953Z AUTO 06003KT 5SM BR BKN070 BKN085 19/18 A3020 RMK AO2 SLP209 T01890178 TSNO
Pressure 30.15 in
Visibility 5.0 miles
Clouds Mostly Cloudy 7000 ft
Mostly Cloudy 8500 ft
Dew Point 64 °F
Humidity 94%
Rainfall 0.00 in
Snow Depth Not available.
7:06 AM 8:13 PM
Waning Crescent, 4% visible
METAR KHLC 300953Z AUTO 06003KT 5SM BR BKN070 BKN085 19/18 A3020 RMK AO2 SLP209 T01890178 TSNO

10-Day Weather Forecast

Almanac

Astronomy

Aug. 30, 2016 Rise Set
Actual Time
Civil Twilight
Nautical Twilight
Astronomical Twilight
Moon
Length of Visible Light
Length of Day
Tomorrow will be .
, % of the Moon is Illuminated

Today's Extremes

State Highs State Lows

Community

WunderPhotos

Upload Photos

1,935,795 photos uploaded!

WunderBlog® & News

Nearby

Air Quality

  Air Quality AQ Index Pollutant
Not available.

Snow Depth

Station Depth Elevation

Earthquake Activity

City Distance Mag. Time & Date
Minimum magnitude displayed is 2.5.

Coastal Water Temperatures

Place Temperature

Stations

Nearby Weather Stations

Station Location Temp. Windchill Dew Point Humidity Wind Precip. Elev Updated Type
                   

Watches & Warnings

There are currently no watches in effect.